Weather observations for the past three days for
Ada, Ada Municipal Airport
Metric (Imperial)
Date Time (cdt) Wind (kph) Vis. (km) Weather Sky Cond. Temperature (ºC) Relative Humidity Wind Chill (°C) Heat Index (°C) Pressure Precipitation (cm)
Air Dwpt 6 hour altimeter (cm) sea level (mb) 1 hr 3 hr 6 hr
Max. Min.
08 19:56 Vrbl 7 16.09 Partly Cloudy FEW045 FEW070 SCT110 24 18 69% 25 75.67 0.0
08 19:35 S 17 16.09 Fair CLR 24 18 69% 25 75.59 0.0
08 19:15 S 17 16.09 Fair CLR 25 18 65% 26 75.59 0.0
08 18:55 SE 13 16.09 Fair CLR 26 18 28.3 25.7 61% 27 75.57 0.0
08 18:35 S 15 16.09 Fair CLR 26 18 61% 27 75.59 0.0
08 18:15 S 15 16.09 Fair CLR 27 18 58% 28 75.57 0.0
08 17:55 S 20 G 33 16.09 A Few Clouds FEW047 27 18 58% 28 75.57 0.0
08 17:35 S 17 G 26 16.09 Mostly Cloudy SCT047 BKN055 28 19 58% 29 75.57 0.0
08 17:15 S 19 G 28 16.09 Mostly Cloudy SCT047 BKN060 28 18 55% 29 75.59 0.0
08 16:55 S 17 16.09 Partly Cloudy FEW047 SCT070 28 18 55% 29 75.62 0.0
08 16:35 S 19 4.02 A Few Clouds with Haze FEW065 28 18 55% 29 75.64 0.0
08 16:15 S 19 G 28 16.09 Fair CLR 28 18 55% 29 75.64 0.0
08 15:35 S 17 G 26 16.09 Fair CLR 28 18 55% 29 75.67 0.0
08 14:35 SE 15 G 26 16.09 A Few Clouds FEW044 FEW050 28 18 55% 29 75.72 0.0
08 14:15 S 13 G 30 16.09 Mostly Cloudy BKN044 BKN050 26 18 61% 27 75.74 0.0
08 13:55 S 13 16.09 Mostly Cloudy BKN042 27 18 58% 28 75.77 0.0
08 13:35 S 15 G 30 16.09 A Few Clouds FEW042 27 17 54% 28 75.79 0.0
08 13:15 S 15 16.09 A Few Clouds FEW044 26 17 58% 27 75.82 0.0
08 12:55 S 20 G 31 16.09 Fair CLR 26 17 25.8 11.5 58% 27 75.84 0.0
08 12:35 SW 20 G 28 16.09 Fair CLR 25 16 57% 26 75.87 0.0
08 12:16 S 13 16.09 Fair CLR 25 16 57% 26 75.9 0.0
08 11:55 S 15 16.09 Fair CLR 24 16 61% 25 75.92 0.0
08 11:35 S 19 G 26 16.09 Fair CLR 24 16 61% 25 75.97 0.0
08 11:15 S 7 G 26 16.09 Fair CLR 23 15 61% 76 0.0
08 10:55 S 9 G 26 16.09 Fair CLR 23 16 65% 76.02 0.0
08 10:15 S 17 16.09 Fair CLR 21 16 73% 76.05 0.0
08 09:55 S 13 16.09 Fair CLR 20 17 83% 76.05 0.0
08 09:35 S 15 16.09 Fair CLR 19 17 88% 76.07 0.0
08 09:15 S 13 14.48 Fair CLR 18 16 88% 76.1 0.0
08 08:55 S 9 16.09 Fair CLR 17 16 94% 76.12 0.0
08 08:35 S 11 6.44 Light Drizzle Fog/Mist CLR 16 15 94% 76.12 0.0
08 08:15 S 9 16.09 Fair CLR 15 15 100% 76.12 0.0
08 07:55 S 9 16.09 Fair CLR 14 14 100% 76.12 0.0
08 07:36 S 9 16.09 Fair CLR 14 14 100% 76.1 0.0
08 07:15 S 9 16.09 Fair CLR 13 13 100% 76.1 0.0
08 06:55 Calm 16.09 Fair CLR 12 12 15.9 10.4 100% 76.05 0.0
08 06:35 Calm 4.83 Fog/Mist CLR 12 12 100% 76.05 0.0
08 06:15 S 6 6.44 Fog/Mist CLR 11 11 100% 76.02 0.0
08 05:55 Calm 16.09 Fair CLR 11 11 100% 76.02 0.0
08 05:37 Calm 16.09 Fair CLR 11 11 100% 76.02 0.0
08 05:15 Calm 2.82 Fog/Mist CLR 12 12 100% 76.02 0.0
08 04:56 Calm 16.09 Fair CLR 11 11 100% 76.05 0.0
08 04:35 SE 11 16.09 Fair CLR 11 11 100% 76.02 0.0
08 04:15 S 7 16.09 Fair CLR 11 11 100% 76.05 0.0
08 03:55 S 9 16.09 Fair CLR 11 11 100% 76.05 0.0
08 03:35 Calm 16.09 Fair CLR 12 12 100% 76.05 0.0
08 03:15 S 7 16.09 Fair CLR 12 12 100% 76.05 0.0
08 02:55 S 7 16.09 Fair CLR 12 12 100% 76.02 0.0
08 02:35 S 9 16.09 Fair CLR 13 12 94% 76.05 0.0
08 02:15 S 9 16.09 Fair CLR 13 12 94% 76.07 0.0
08 01:55 S 7 16.09 Fair CLR 14 12 88% 76.1 0.0
08 01:36 S 11 16.09 Fair CLR 16 12 77% 76.1 0.0
08 01:15 S 11 16.09 Fair CLR 15 12 82% 76.12 0.0
08 00:55 S 7 16.09 Fair CLR 15 12 23.6 13.8 82% 76.12 0.0
08 00:35 S 7 16.09 Fair CLR 15 12 82% 76.12 0.0
08 00:15 S 7 16.09 Fair CLR 14 11 82% 76.15 0.0
07 23:55 S 9 16.09 Fair CLR 14 11 82% 76.15 0.0
07 23:35 S 7 16.09 Fair CLR 15 11 77% 76.17 0.0
07 23:15 S 11 16.09 Fair CLR 15 11 77% 76.17 0.0
07 22:55 S 9 16.09 Fair CLR 15 11 77% 76.17 0.0
07 22:35 S 9 1.21 Light Drizzle Haze VV005 15 11 77% 76.17 0.0
07 22:16 S 6 16.09 Fair CLR 16 9 63% 76.15 0.0
07 21:55 Calm 16.09 Fair CLR 16 9 63% 76.15 0.0
07 21:35 Calm 16.09 Fair CLR 17 9 60% 76.12 0.0
07 21:15 Calm 16.09 Fair CLR 18 9 56% 76.12 0.0
07 20:55 Calm 16.09 Fair CLR 18 8 52% 76.1 0.0
07 20:35 SE 6 16.09 Fair CLR 19 9 52% 76.1 0.0
07 20:15 Calm 3.22 Fair with Haze CLR 20 8 46% 76.1 0.0
07 19:55 S 6 4.83 Fair with Haze CLR 21 9 46% 76.1 0.0
07 19:35 Calm 4.02 Fair with Haze CLR 22 9 44% 76.1 0.0
07 19:15 Calm 14.48 Fair CLR 23 8 38% 76.1 0.0
07 18:55 Calm 2.82 Light Drizzle Haze CLR 23 8 25.1 19.6 38% 76.1 0.0
07 18:35 SW 7 6.44 Fair with Haze CLR 23 8 38% 76.1 0.0
07 18:15 Calm 11.27 Fair with Haze CLR 24 9 39% 25 76.1 0.0
07 17:55 Calm 4.02 Light Drizzle Haze CLR 24 9 39% 25 76.12 0.0
07 17:35 SW 13 4.02 Light Drizzle Haze CLR 23 8 38% 76.12 0.0
07 17:15 W 13 4.83 Fair with Haze CLR 24 8 36% 25 76.12 0.0
07 16:55 Calm 2.41 Light Drizzle Haze CLR 23 8 38% 76.12 0.0
07 16:35 W 15 6.44 Fair with Haze CLR 23 9 41% 76.15 0.0
07 16:15 SW 9 8.05 Fair with Haze CLR 23 9 41% 76.15 0.0
07 15:55 W 15 G 30 8.05 Light Drizzle Haze CLR 23 9 41% 76.17 0.0
07 15:35 W 6 6.44 Fair with Haze CLR 23 9 41% 76.2 0.0
07 15:15 Vrbl 7 16.09 Fair CLR 22 8 41% 76.23 0.0
07 14:55 W 11 1.61 Fair with Haze CLR 22 8 41% 76.25 0.0
07 14:35 W 15 0.80 Light Drizzle Haze VV005 21 8 43% 76.28 0.0
07 14:15 W 17 4.02 Fair with Haze CLR 21 9 46% 76.28 0.0
07 13:55 Vrbl 7 1.21 Light Drizzle Haze VV005 21 9 46% 76.3 0.0
07 13:35 Vrbl 9 6.44 Fair with Haze CLR 20 8 46% 76.33 0.0
07 13:15 Vrbl 7 4.83 Light Drizzle Haze CLR 20 8 46% 76.35 0.0
07 12:55 W 11 0.80 Sky Obscured with Haze VV005 20 8 20.2 6.7 46% 76.4 0.0
07 12:35 S 7 16.09 Fair CLR 20 7 43% 76.4 0.0
07 12:15 Calm 16.09 Fair CLR 19 7 46% 76.43 0.0
07 11:55 W 9 16.09 Fair CLR 19 7 46% 76.45 0.0
07 11:35 Calm 16.09 Fair CLR 19 7 46% 76.48 0.0
07 11:16 Vrbl 6 16.09 Fair CLR 19 7 46% 76.48 0.0
07 10:55 Vrbl 7 16.09 Fair CLR 17 6 49% 76.48 0.0
07 10:35 Calm 16.09 Fair CLR 17 6 49% 76.5 0.0
07 10:15 Calm 16.09 Fair CLR 17 7 52% 76.53 0.0
07 09:55 Calm 16.09 Fair CLR 16 8 59% 76.56 0.0
07 09:35 Calm 16.09 Fair CLR 15 9 68% 76.56 0.0
07 09:16 Calm 16.09 Fair CLR 14 9 72% 76.56 0.0
07 08:55 Calm 16.09 Fair CLR 13 10 82% 76.56 0.0
07 08:17 W 7 16.09 Fair CLR 10 10 100% 9 76.58 0.0
07 07:55 Calm 16.09 Fair CLR 9 9 100% 76.56 0.0
07 07:35 W 7 16.09 Fair CLR 8 8 100% 7 76.53 0.0
07 07:15 W 9 16.09 Partly Cloudy SCT100 7 7 100% 5 76.5 0.0
07 06:55 W 7 16.09 Mostly Cloudy BKN100 7 7 10.5 6.1 100% 6 76.48 0.0
07 06:35 Calm 16.09 Mostly Cloudy BKN100 7 7 100% 76.48 0.0
07 06:15 NW 9 16.09 Mostly Cloudy BKN110 6 6 100% 4 76.48 0.0
07 05:55 W 9 16.09 Fair CLR 6 6 100% 4 76.45 0.0
07 05:35 W 6 16.09 A Few Clouds FEW110 7 7 100% 76.43 0.0
07 05:15 Calm 16.09 Partly Cloudy SCT110 6 6 100% 76.4 0.0
07 04:55 NW 7 16.09 Fair CLR 7 7 100% 6 76.4 0.0
07 04:35 NW 6 16.09 Partly Cloudy SCT110 7 7 100% 76.4 0.0
07 04:15 NW 6 16.09 Fair CLR 7 7 100% 76.4 0.0
07 03:55 NW 7 16.09 A Few Clouds FEW060 8 8 100% 7 76.4 0.0
07 03:35 N 6 16.09 A Few Clouds FEW060 8 8 100% 76.38 0.0
07 03:15 Calm 16.09 A Few Clouds FEW060 8 8 100% 76.38 0.0
07 02:55 Calm 16.09 Fair CLR 8 8 100% 76.43 0.0
07 02:35 NW 9 16.09 Fair CLR 9 9 100% 8 76.43 0.0
07 02:15 N 7 16.09 Fair CLR 9 9 100% 8 76.43 0.0
07 01:55 NW 9 16.09 Fair CLR 9 9 100% 8 76.45 0.0
07 01:35 N 9 16.09 Fair CLR 10 10 100% 9 76.45 0.0
07 01:15 N 7 16.09 Fair CLR 10 10 100% 9 76.45 0.0
07 00:55 N 9 16.09 Fair CLR 10 10 17.6 8.9 100% 9 76.43 0.0
07 00:35 NE 7 16.09 Fair CLR 10 10 100% 9 76.38 0.0
07 00:15 NE 7 16.09 Fair CLR 10 10 100% 9 76.38 0.0
06 23:35 N 6 16.09 Fair CLR 11 10 94% 76.4 0.0
06 23:15 N 7 16.09 Fair CLR 11 10 94% 76.4 0.0
06 22:55 Calm 16.09 Fair CLR 11 11 100% 76.38 0.0
06 22:35 Calm 16.09 Fair CLR 11 10 94% 76.38 0.0
06 22:15 N 6 16.09 Fair CLR 12 11 94% 76.35 0.0
06 21:55 Calm 16.09 Fair CLR 12 11 94% 76.35 0.0
06 21:35 Calm 16.09 Fair CLR 12 11 94% 76.33 0.0
06 20:55 N 7 16.09 Partly Cloudy SCT044 13 11 88% 76.3 0.0
06 20:35 N 7 16.09 A Few Clouds FEW044 13 11 88% 76.28 0.0
06 20:15 N 11 16.09 Fair CLR 15 10 72% 76.25 0.0
06 19:55 NE 20 16.09 Mostly Cloudy BKN039 16 10 68% 76.23 0.0
06 19:35 Calm 16.09 Partly Cloudy SCT041 16 11 72% 76.23 0.0
06 19:15 NE 13 16.09 A Few Clouds FEW044 16 11 72% 76.2 0.0
06 18:55 NE 20 16.09 Fair CLR 17 11 17.9 12.9 68% 76.2 0.0
06 18:35 NE 15 16.09 A Few Clouds FEW041 17 11 68% 76.17 0.0
06 18:15 NE 19 16.09 A Few Clouds FEW041 18 11 64% 76.17 0.0
06 17:55 NE 13 16.09 Fair CLR 18 11 64% 76.15 0.0
06 17:35 NE 20 16.09 Fair CLR 17 11 68% 76.17 0.0
06 17:15 NE 11 16.09 Fair CLR 18 11 64% 76.17 0.0
06 16:55 E 15 16.09 Mostly Cloudy FEW033 BKN110 17 11 68% 76.17 0.0
06 16:35 NE 13 16.09 Mostly Cloudy BKN033 BKN110 16 11 72% 76.2 0.0
06 16:15 NE 17 16.09 Mostly Cloudy BKN030 16 11 72% 76.2 0.0
06 15:55 NE 20 G 28 16.09 Overcast OVC028 16 11 72% 76.17 0.0
06 15:35 N 17 G 30 16.09 Overcast OVC024 15 11 77% 76.2 0.0
06 15:15 N 19 16.09 Overcast OVC024 15 11 77% 76.17 0.0
06 14:55 NE 24 16.09 Mostly Cloudy BKN024 BKN120 14 11 82% 76.15 0.0
06 14:35 N 22 G 33 16.09 Mostly Cloudy SCT024 BKN110 14 11 82% 76.12 0.0
06 14:15 NE 20 G 33 16.09 Overcast OVC024 13 10 82% 76.12 0.0
06 13:55 NE 19 G 30 16.09 Mostly Cloudy BKN024 BKN110 13 11 88% 76.2 0.0
06 13:35 NE 17 16.09 Mostly Cloudy BKN022 13 11 88% 76.2 0.0
06 13:15 NE 22 G 31 16.09 A Few Clouds FEW022 FEW110 14 11 82% 76.23 0.0
06 12:55 NE 24 G 31 16.09 Mostly Cloudy BKN022 BKN120 13 10 13.6 9.7 82% 76.25 0.0
06 12:35 N 22 16.09 Mostly Cloudy BKN022 BKN120 13 10 82% 76.3 0.0
06 12:15 NE 22 16.09 Overcast OVC022 13 10 82% 76.3 0.0
06 11:55 NE 20 16.09 Mostly Cloudy BKN022 13 10 82% 76.3 0.0
06 11:35 NE 22 G 35 16.09 Partly Cloudy SCT022 13 10 82% 76.28 0.0
06 11:15 NE 28 G 39 16.09 Partly Cloudy SCT022 13 9 77% 76.25 0.0
06 10:55 NE 24 G 31 16.09 Overcast OVC024 12 9 82% 76.28 0.0
06 10:35 NE 22 G 33 16.09 Overcast OVC024 11 9 88% 76.3 0.0
06 10:15 NE 26 G 35 16.09 Overcast OVC026 11 9 88% 76.25 0.0
06 09:55 NE 22 G 35 16.09 Mostly Cloudy BKN026 11 9 88% 76.25 0.0
06 09:35 NE 24 G 35 16.09 Partly Cloudy SCT024 11 9 88% 76.23 0.0
06 09:14 NE 20 G 39 16.09 Fair CLR 11 8 82% 76.2 0.0
06 08:55 NE 26 16.09 Fair CLR 11 9 88% 76.17 0.0
06 08:35 NE 22 G 44 16.09 Fair CLR 10 8 88% 7 76.15 0.0
06 08:15 NE 22 G 33 16.09 Fair CLR 10 8 88% 7 76.1 0.0
06 07:55 N 26 16.09 A Few Clouds FEW029 10 9 94% 7 76.1 0.0
06 07:35 NE 22 G 33 16.09 Mostly Cloudy BKN029 10 8 88% 7 76.1 0.0
06 07:15 N 20 G 30 16.09 Partly Cloudy SCT029 10 8 88% 8 76.12 0.0
06 06:55 N 19 G 30 16.09 Mostly Cloudy BKN029 10 9 10.4 9.2 94% 8 76.1 0.0
06 06:35 N 22 G 31 16.09 Overcast OVC027 10 8 88% 7 76.07 0.0
06 06:15 N 19 16.09 Overcast OVC027 10 8 88% 8 76.05 0.0
06 05:35 N 15 G 30 16.09 Overcast OVC025 10 9 94% 8 76 0.0
06 05:15 N 20 16.09 Overcast OVC023 10 9 94% 8 76.02 0.0
06 04:55 N 22 G 31 16.09 Overcast OVC019 10 9 94% 7 76.02 0.0
06 04:35 N 17 16.09 Overcast OVC019 10 10 100% 8 76 0.0
06 04:15 N 17 16.09 Overcast OVC019 10 10 100% 8 75.97 0.0
06 03:55 N 15 16.09 Overcast OVC019 10 10 100% 8 75.92 0.0
06 03:35 NE 15 16.09 Overcast OVC016 10 10 100% 8 75.9 0.0
06 03:15 N 13 16.09 Overcast OVC016 10 10 100% 8 75.9 0.0
06 02:55 N 17 16.09 Overcast OVC016 10 10 100% 8 75.87 0.0
06 02:35 N 19 16.09 Overcast OVC016 10 10 100% 8 75.87 0.0
06 02:15 N 15 16.09 Overcast OVC016 9 9 100% 7 75.87 0.0
06 01:55 N 13 16.09 Overcast OVC016 10 10 100% 8 75.87 0.0
06 01:35 N 19 16.09 Overcast OVC016 9 9 100% 7 75.87 0.0
06 01:15 N 13 16.09 Overcast BKN016 BKN030 OVC075 10 10 100% 8 75.9 0.0
06 00:55 N 17 14.48 Overcast BKN018 BKN046 OVC120 10 10 13.4 9.7 100% 8 75.9 0.0
06 00:35 N 22 G 30 16.09 Overcast BKN018 OVC045 10 10 100% 7 75.9 0.0
06 00:15 N 19 16.09 Overcast OVC018 11 10 94% 75.9 0.0
05 23:55 N 22 G 28 16.09 Overcast OVC018 10 9 94% 7 75.92 0.0
05 23:35 N 20 16.09 Overcast OVC020 11 10 94% 75.87 0.0
05 23:15 N 17 16.09 Overcast OVC020 11 10 94% 75.9 0.0
05 22:55 N 15 G 26 16.09 Overcast OVC022 11 9 88% 75.87 0.0
05 22:35 N 20 G 28 16.09 Overcast OVC022 11 9 88% 75.87 0.0
05 22:15 N 19 G 37 16.09 Overcast OVC022 11 9 88% 75.87 0.0
05 21:55 N 20 G 33 16.09 Overcast OVC019 12 10 88% 75.82 0.0
05 21:35 N 17 16.09 Overcast OVC019 12 10 88% 75.82 0.0
05 21:15 N 17 16.09 Overcast OVC019 12 10 88% 75.74 0.0
05 20:55 N 22 16.09 Overcast OVC019 12 11 94% 75.72 0.0
05 20:35 N 19 G 33 16.09 Overcast OVC017 12 11 94% 75.72 0.0
Date Time (cdt) Wind (kph) Vis. (km) Weather Sky Cond. Air Dwpt Max. Min. Relative Humidity Wind Chill (°C) Heat Index (°C) altimeter (cm) sea level (mb) 1 hr 3 hr 6 hr
6 hour
Temperature (ºC) Pressure Precipitation (cm)